MAPA DE AEROPUERTO

INFORMACIÓN METAR y TAF

METAR FOR LEGR
ADDS - METARS form results

(0529 UTC 10 August 2020)
Data provider http://aviationweather.gov/metar/data/
 
METAR text: LEGR 100500Z VRB01KT 9999 FEW080 20/11 Q1014
Conditions at: LEGR (GRANADA AIRPORT , ES) observed 0500 UTC 10 August 2020
Temperature: 20.0°C (68°F)
Dewpoint: 11.0°C (52°F) [RH = 56%]
Pressure (altimeter): 29.94 inches Hg (1014.0 mb)
Winds: variable direction winds at 1 MPH (1 knots; 0.5 m/s)
Visibility: 6 or more miles (10+ km)
Ceiling: at least 12,000 feet AGL
Clouds: few clouds at 8000 feet AGL
Weather: no significant weather observed at this time

METAR text: LEGR 100430Z VRB01KT 9999 FEW080 21/09 Q1014
Conditions at: LEGR (GRANADA AIRPORT , ES) observed 0430 UTC 10 August 2020
Temperature: 21.0°C (70°F)
Dewpoint: 9.0°C (48°F) [RH = 46%]
Pressure (altimeter): 29.94 inches Hg (1014.0 mb)
Winds: variable direction winds at 1 MPH (1 knots; 0.5 m/s)
Visibility: 6 or more miles (10+ km)
Ceiling: at least 12,000 feet AGL
Clouds: few clouds at 8000 feet AGL
Weather: no significant weather observed at this time

Forecast for: AMD
Text: TAF AMD LEGR 100431Z 1004/1103 VRB03KT CAVOK TX36/1014Z TN23/1103Z
Forecast period: 0400 to 1000 UTC 10 August 2020
Forecast type: FROM: standard forecast or significant change
Winds: variable direction winds at 3 MPH (3 knots; 1.5 m/s)
Visibility: 6 or more miles (10+ km)
Ceiling: unknown
Clouds: missing
Weather: no significant weather forecast for this period
Text: BECMG 1010/1012 26010KT
Forecast period: 1000 UTC 10 August 2020 to 0300 UTC 11 August 2020
Forecast type: BECOMING: Conditions expected to become as follows by 1200 UTC 10 August 2020
Winds: from the W (260 degrees) at 12 MPH (10 knots; 5.1 m/s)
Visibility: 6 or more miles (10+ km)
Ceiling: unknown
Clouds: missing
Weather: no significant weather forecast for this period
Text: PROB40
Forecast period: 0800 to 1800 UTC 10 August 2020
Forecast type: TEMPORARY: The following changes expected for less than half the time period
Visibility: missing
Ceiling: at least 12,000 feet AGL
Clouds: few clouds at 2000 feet AGL
Weather: TSRA  (rain associated with thunderstorm(s))